Time;durP1;ratioP1;P1;durP2;ratioP2;P2;SDS_P1;SDS_P2;PMS_P1;PMS_P2;Temp;Humidity;BMP_temperature;BMP_pressure;BME280_temperature;BME280_humidity;BME280_pressure;Samples;Min_cycle;Max_cycle;Signal;HPM_P1;HPM_P2
2024/01/03 00:01:36;;;;;;;15.80;6.75;;;7.20;99.90;;;4.00;100.00;98471.25;4834128;29;20053;-87
2024/01/03 00:34:22;;;;;;;49.13;24.30;;;;;;;4.22;100.00;98434.41;5670802;22;15869774;-86
2024/01/03 00:37:35;;;;;;;43.80;20.55;;;;;;;4.21;100.00;98417.94;6056039;23;20875;-86
2024/01/03 00:44:44;;;;;;;25.02;12.48;;;;;;;4.06;100.00;98408.38;5897939;23;21050;-85
2024/01/03 00:47:25;;;;;;;31.88;13.88;;;;;;;4.05;100.00;98399.72;5834246;24;20031;-86
2024/01/03 00:51:36;;;;;;;;;;;;;;;;;;;;;
2024/01/03 01:28:15;;;;;;;6.93;4.15;;;5.40;99.90;;;3.93;100.00;98377.03;5502213;22;15104260;-88
2024/01/03 01:31:23;;;;;;;11.45;6.03;;;5.40;99.90;;;3.94;100.00;98370.88;6194227;23;20010;-87
2024/01/03 01:34:03;;;;;;;10.98;3.92;;;5.50;99.90;;;3.94;100.00;98391.69;5969277;23;20011;-89
2024/01/03 01:37:16;;;;;;;14.68;7.07;;;5.50;99.90;;;3.94;100.00;98383.06;5903509;23;20016;-87
2024/01/03 01:39:44;;;;;;;12.52;6.75;;;;;;;3.99;100.00;98387.06;5827393;23;20076;-87
2024/01/03 01:42:33;;;;;;;;;;;;;;;;;;;;;
2024/01/03 01:45:14;;;;;;;13.70;7.28;;;;;;;4.08;100.00;98377.88;5924945;23;20020;-87
2024/01/03 01:47:56;;;;;;;16.45;6.78;;;;;;;4.08;100.00;98377.88;5932019;23;20083;-87
2024/01/03 01:50:35;;;;;;;11.75;7.32;;;5.60;99.90;;;4.13;100.00;98367.22;5875037;23;20443;-86
2024/01/03 01:53:14;;;;;;;11.85;6.63;;;5.60;99.90;;;4.15;100.00;98370.53;5907975;23;20031;-87
2024/01/03 01:55:55;;;;;;;10.80;5.22;;;5.60;99.90;;;4.11;100.00;98370.75;5872371;23;20081;-86
2024/01/03 01:58:35;;;;;;;13.55;7.22;;;5.60;99.90;;;4.13;100.00;98352.44;5824744;24;20024;-87
2024/01/03 02:01:03;;;;;;;11.18;6.95;;;5.60;99.90;;;4.16;100.00;98354.84;5848175;23;21537;-86
2024/01/03 02:03:52;;;;;;;12.55;7.38;;;5.60;99.90;;;4.20;100.00;98347.69;5813963;24;20024;-86
2024/01/03 02:07:05;;;;;;;15.63;6.72;;;5.60;99.90;;;4.20;100.00;98338.09;5852171;23;20016;-86
2024/01/03 02:09:58;;;;;;;13.32;6.88;;;5.70;99.90;;;4.21;100.00;98337.19;5784250;24;20329;-86
2024/01/03 02:12:57;;;;;;;;;;;;;;;;;;;;;
2024/01/03 02:15:24;;;;;;;10.70;5.07;;;;;;;4.16;100.00;98330.56;5935069;23;20852;-87
2024/01/03 02:18:05;;;;;;;12.00;5.82;;;;;;;4.21;100.00;98329.38;5892042;23;20034;-87
2024/01/03 02:20:55;;;;;;;10.45;6.18;;;;;;;4.24;100.00;98317.94;5899191;23;20021;-87
2024/01/03 02:23:44;;;;;;;11.43;6.20;;;5.70;99.90;;;4.23;100.00;98329.28;5780186;24;20502;-87
2024/01/03 02:26:23;;;;;;;9.48;5.20;;;5.60;99.90;;;4.19;100.00;98318.22;5763194;24;20789;-87
2024/01/03 02:29:03;;;;;;;10.23;5.43;;;;;;;4.23;100.00;98318.84;5785369;24;20074;-87
2024/01/03 02:31:55;;;;;;;9.10;5.38;;;5.70;99.90;;;4.21;100.00;98318.97;5840606;24;20028;-86
2024/01/03 02:34:23;;;;;;;8.82;3.95;;;;;;;4.11;100.00;98303.03;5742365;24;22024;-87
2024/01/03 02:37:26;;;;;;;;;;;;;;;;;;;;;
2024/01/03 02:39:55;;;;;;;9.02;5.75;;;5.70;99.90;;;4.20;100.00;98306.03;5849666;23;20729;-88
2024/01/03 02:42:34;;;;;;;8.10;5.07;;;;;;;4.25;100.00;98303.97;5778011;23;20025;-87
2024/01/03 02:45:42;;;;;;;11.88;5.70;;;;;;;4.29;100.00;98298.47;5812408;23;20017;-87
2024/01/03 02:48:46;;;;;;;9.20;4.53;;;5.70;99.90;;;4.27;100.00;98292.53;5860072;23;21793;-88
2024/01/03 02:51:25;;;;;;;9.30;5.57;;;;;;;4.31;100.00;98299.22;5744375;24;20022;-87
2024/01/03 02:54:03;;;;;;;9.75;3.78;;;5.80;99.90;;;4.29;100.00;98290.66;5775233;24;20056;-87
2024/01/03 02:57:13;;;;;;;10.38;5.18;;;5.70;99.90;;;4.32;100.00;98290.50;5784780;24;20018;-87
2024/01/03 02:59:44;;;;;;;10.07;5.43;;;5.80;99.90;;;4.33;100.00;98291.34;5739051;24;20019;-85
2024/01/03 03:02:54;;;;;;;8.10;4.70;;;5.80;99.90;;;4.33;100.00;98291.34;5731734;24;20065;-87
2024/01/03 03:05:35;;;;;;;10.38;5.20;;;;;;;4.29;100.00;98271.59;5700729;24;20019;-88
2024/01/03 03:08:24;;;;;;;8.50;4.80;;;;;;;4.30;100.00;98278.50;5758134;24;20015;-85
2024/01/03 03:10:56;;;;;;;10.27;5.22;;;5.70;99.90;;;4.30;100.00;98283.72;5761277;24;20469;-85
2024/01/03 03:20:15;;;;;;;9.55;4.15;;;;;;;4.28;100.00;98281.19;5572162;25;20029;-85
2024/01/03 03:22:57;;;;;;;8.73;4.35;;;;;;;4.25;100.00;98272.72;5592419;25;20022;-85
2024/01/03 03:26:04;;;;;;;8.88;4.30;;;6.70;99.90;;;4.24;100.00;98258.84;5651178;24;20030;-86
2024/01/03 03:32:14;;;;;;;9.80;4.03;;;5.70;99.90;;;4.25;100.00;98263.13;5862710;23;20019;-86
2024/01/03 03:35:04;;;;;;;9.70;5.15;;;5.70;99.90;;;4.24;100.00;98258.84;5872911;23;20036;-88
2024/01/03 03:37:36;;;;;;;8.27;4.60;;;;;;;4.25;100.00;98257.09;5918707;23;20020;-87
2024/01/03 03:40:26;;;;;;;;;;;;;;;;;;;;;
2024/01/03 03:42:55;;;;;;;7.32;4.88;;;;;;;4.26;100.00;98262.22;5795135;23;20095;-87
2024/01/03 03:45:44;;;;;;;10.68;3.95;;;;;;;4.29;100.00;98255.97;5775292;24;20400;-88
2024/01/03 03:48:23;;;;;;;10.93;5.22;;;;;;;4.34;100.00;98251.31;5952992;23;20014;-87
2024/01/03 03:51:44;;;;;;;7.82;4.97;;;5.80;99.90;;;4.38;100.00;98251.97;6009555;23;20745;-86
2024/01/03 03:54:36;;;;;;;5.13;2.95;;;5.80;99.90;;;4.35;100.00;98259.97;5940588;23;20094;-86
2024/01/03 03:57:13;;;;;;;6.13;4.07;;;;;;;4.37;100.00;98258.13;5890125;23;20017;-87
2024/01/03 04:00:24;;;;;;;7.22;4.78;;;;;;;4.34;100.00;98255.69;6008733;23;20383;-86
2024/01/03 04:02:53;;;;;;;8.82;4.43;;;;;;;4.32;100.00;98259.25;5951840;23;20122;-85
2024/01/03 04:08:15;;;;;;;7.30;3.95;;;5.80;99.90;;;4.37;100.00;98260.72;5985397;23;20061;-85
2024/01/03 04:11:56;;;;;;;8.52;4.85;;;5.80;99.90;;;4.39;100.00;98258.88;5993915;23;20122;-85
2024/01/03 04:18:04;;;;;;;8.13;4.93;;;5.90;99.90;;;4.36;100.00;98246.00;6032440;23;20008;-85
2024/01/03 04:21:14;;;;;;;8.10;4.60;;;5.80;99.90;;;4.37;100.00;98248.53;5989835;23;20060;-85
2024/01/03 04:23:43;;;;;;;9.00;4.15;;;;;;;4.38;100.00;98249.38;5945697;23;20010;-85
2024/01/03 04:29:16;;;;;;;7.88;3.88;;;5.90;99.90;;;4.43;100.00;98242.13;5995535;23;20847;-86
2024/01/03 04:31:44;;;;;;;6.47;3.65;;;5.90;99.90;;;4.42;100.00;98243.03;5926377;23;20015;-85
2024/01/03 04:34:39;;;;;;;8.95;4.68;;;;;;;4.48;100.00;98245.28;5859310;23;20015;-85
2024/01/03 04:37:35;;;;;;;9.15;5.57;;;6.00;99.90;;;4.51;100.00;98243.34;5948877;23;20455;-87
2024/01/03 04:41:16;;;;;;;7.70;4.10;;;5.90;99.90;;;4.49;100.00;98244.34;5852652;24;20024;-86
2024/01/03 04:49:45;;;;;;;6.80;3.63;;;6.00;99.90;;;4.55;100.00;98250.94;6134732;22;20769;-87
2024/01/03 04:52:43;;;;;;;10.38;4.97;;;6.00;99.90;;;4.53;100.00;98235.41;5905555;23;20019;-86
2024/01/03 04:59:35;;;;;;;10.82;5.72;;;6.00;99.90;;;4.62;100.00;98245.28;5970700;23;20091;-87
2024/01/03 05:05:46;;;;;;;9.77;5.97;;;;;;;4.65;100.00;98241.63;5920370;23;20020;-85
2024/01/03 05:08:56;;;;;;;12.73;6.75;;;6.10;99.90;;;4.67;100.00;98242.38;5958595;23;20097;-86
2024/01/03 05:11:25;;;;;;;11.23;5.65;;;;;;;4.66;100.00;98240.69;5820053;24;20009;-86
2024/01/03 05:14:06;;;;;;;11.20;6.78;;;6.10;99.90;;;4.67;100.00;98237.16;5843265;24;20101;-85
2024/01/03 05:16:55;;;;;;;11.07;6.10;;;;;;;4.71;100.00;98236.03;5818992;24;20045;-85
2024/01/03 05:19:26;;;;;;;11.45;7.18;;;6.20;99.90;;;4.74;100.00;98233.22;5813234;24;20091;-86
2024/01/03 05:22:24;;;;;;;12.50;6.78;;;6.20;99.90;;;4.78;100.00;98224.28;5855206;24;20012;-85
2024/01/03 05:25:14;;;;;;;10.75;6.40;;;6.20;99.90;;;4.80;100.00;98229.41;5711228;24;20357;-85
2024/01/03 05:27:53;;;;;;;;;;;;;;;;;;;;;
2024/01/03 05:30:35;;;;;;;15.38;7.57;;;6.30;99.90;;;4.87;100.00;98223.69;6078073;22;20096;-86
2024/01/03 05:35:56;;;;;;;13.32;7.53;;;6.30;99.90;;;4.91;100.00;98227.78;5993183;23;20020;-84
2024/01/03 05:38:35;;;;;;;15.38;8.00;;;6.30;99.90;;;4.93;100.00;98225.94;5964028;23;20025;-86
2024/01/03 05:44:43;;;;;;;13.25;8.32;;;6.40;99.90;;;4.98;100.00;98240.44;6013345;23;20070;-84
2024/01/03 05:47:24;;;;;;;13.07;7.75;;;;;;;4.94;100.00;98245.84;5963341;23;20036;-86
2024/01/03 05:50:47;;;;;;;;;;;;;;;;;;;;;
2024/01/03 05:53:16;;;;;;;15.07;8.20;;;;;;;4.99;100.00;98234.28;5890476;23;21383;-87
2024/01/03 05:59:25;;;;;;;14.27;8.50;;;6.40;99.90;;;4.99;100.00;98226.47;5783985;24;20027;-86
2024/01/03 06:02:33;;;;;;;19.55;9.25;;;;;;;5.03;100.00;98235.75;5763643;24;20093;-86
2024/01/03 06:05:18;;;;;;;14.60;8.20;;;6.50;99.90;;;5.03;100.00;98241.84;5869308;24;20051;-86
2024/01/03 06:08:24;;;;;;;17.42;9.00;;;;;;;5.07;100.00;98237.25;5999495;23;20021;-86
2024/01/03 06:11:03;;;;;;;16.52;9.43;;;6.50;99.90;;;5.10;100.00;98243.13;6048703;23;20026;-86
2024/01/03 06:13:46;;;;;;;30.90;14.90;;;6.50;99.90;;;5.11;100.00;98244.78;5982280;23;20015;-86
2024/01/03 06:16:46;;;;;;;14.25;7.57;;;6.50;99.90;;;5.10;100.00;98245.72;6021432;23;20108;-87
2024/01/03 06:19:56;;;;;;;14.73;7.43;;;;;;;5.11;100.00;98249.16;5914081;23;20029;-87
2024/01/03 06:22:55;;;;;;;16.52;5.97;;;;;;;5.12;100.00;98248.25;5910254;23;20153;-87
2024/01/03 06:25:46;;;;;;;9.68;5.03;;;6.50;99.90;;;5.06;100.00;98251.25;5784310;24;20795;-85
2024/01/03 06:28:54;;;;;;;;;;;;;;;;;;;;;
2024/01/03 06:32:22;;;;;;;10.85;7.07;;;6.60;99.90;;;5.17;100.00;98254.00;5910601;23;21573;-86
2024/01/03 06:38:05;;;;;;;8.20;5.65;;;6.50;99.90;;;5.10;100.00;98266.59;5801544;24;19952;-86
2024/01/03 06:41:35;;;;;;;11.13;5.80;;;6.50;99.90;;;5.11;100.00;98265.66;5825559;24;20057;-86
2024/01/03 06:44:23;;;;;;;12.07;5.85;;;;;;;5.17;100.00;98261.00;5784856;24;20266;-86
2024/01/03 06:46:56;;;;;;;9.82;5.57;;;;;;;5.19;100.00;98264.34;5765672;22;20923;-86
2024/01/03 06:49:44;;;;;;;11.27;5.13;;;;;;;5.19;100.00;98272.16;6097899;22;20369;-87
2024/01/03 06:52:46;;;;;;;11.60;4.90;;;;;;;5.21;100.00;98271.13;6143008;22;20048;-86
2024/01/03 06:56:26;;;;;;;9.52;5.43;;;6.60;99.90;;;5.24;100.00;98263.09;6253810;22;20078;-87
2024/01/03 07:02:36;;;;;;;10.80;4.45;;;;;;;5.33;100.00;98277.31;5966500;23;20522;-86
2024/01/03 07:05:14;;;;;;;14.52;4.22;;;6.80;99.90;;;5.38;100.00;98282.25;5928867;23;20101;-86
2024/01/03 07:11:25;;;;;;;7.53;5.05;;;6.80;99.90;;;5.44;100.00;98274.88;6060312;22;20033;-84
2024/01/03 07:17:27;;;;;;;;;;;;;;;;;;;;;
2024/01/03 07:20:14;;;;;;;12.68;4.38;;;;;;;5.61;100.00;98285.97;5789164;24;20043;-85
2024/01/03 07:23:26;;;;;;;10.75;3.88;;;;;;;5.67;100.00;98277.75;5846318;24;20025;-87
2024/01/03 07:26:05;;;;;;;10.27;3.55;;;7.10;99.90;;;5.76;100.00;98285.81;5773855;24;20269;-87
2024/01/03 07:31:06;;;;;;;7.30;3.15;;;7.20;99.90;;;5.86;100.00;98287.84;6026480;22;20025;-87
2024/01/03 07:33:46;;;;;;;7.47;3.00;;;7.20;99.90;;;5.92;100.00;98285.66;5949412;23;21375;-86
2024/01/03 07:36:15;;;;;;;8.30;3.03;;;;;;;5.98;100.00;98281.81;5882194;23;20030;-86
2024/01/03 07:39:07;;;;;;;8.25;2.33;;;;;;;6.06;100.00;98286.53;6078674;23;20462;-85
2024/01/03 07:41:45;;;;;;;6.25;2.00;;;7.40;99.90;;;6.13;100.00;98282.56;5971259;23;20210;-86
2024/01/03 07:44:33;;;;;;;12.35;3.00;;;;;;;6.17;100.00;98273.56;5930796;23;20097;-87
2024/01/03 07:47:05;;;;;;;13.05;2.78;;;;;;;6.22;100.00;98279.34;5967863;23;20013;-86
2024/01/03 07:49:35;;;;;;;13.75;2.78;;;;;;;6.28;100.00;98275.47;6043009;23;20017;-86
2024/01/03 07:52:33;;;;;;;11.63;2.88;;;7.70;99.90;;;6.35;100.00;98281.97;5997787;23;20022;-87
2024/01/03 07:56:16;;;;;;;8.93;2.10;;;7.70;99.90;;;6.43;100.00;98276.19;5959124;23;20056;-87
2024/01/03 07:58:45;;;;;;;12.63;1.85;;;;;;;6.47;100.00;98275.03;5658884;24;20096;-86
2024/01/03 08:02:44;;;;;;;17.45;1.95;;;;;;;6.54;100.00;98278.91;5694319;24;20022;-86
2024/01/03 08:05:56;;;;;;;18.38;1.94;;;7.90;99.90;;;6.59;100.00;98276.81;5061457;24;4996094;-86
2024/01/03 08:08:45;;;;;;;9.05;1.33;;;8.00;99.90;;;6.67;100.00;98278.88;5364782;24;4954014;-87
2024/01/03 08:29:05;;;;;;;14.23;1.50;;;;;;;6.86;100.00;98284.50;6098805;23;20120;-85
2024/01/03 08:32:04;;;;;;;14.77;2.47;;;8.20;99.90;;;6.86;100.00;98291.53;6047368;23;20018;-85
2024/01/03 08:34:56;;;;;;;12.13;1.50;;;;;;;6.91;100.00;98294.63;5949712;23;20018;-86
2024/01/03 08:37:35;;;;;;;18.92;1.80;;;8.30;99.90;;;6.97;100.00;98289.81;5968618;23;20014;-85
2024/01/03 08:40:33;;;;;;;13.48;1.83;;;;;;;7.04;100.00;98289.38;5961164;23;20053;-85
2024/01/03 08:43:46;;;;;;;13.52;1.80;;;;;;;7.08;100.00;98291.66;6013957;23;20015;-86
2024/01/03 08:46:44;;;;;;;5.88;1.50;;;8.40;99.90;;;7.11;100.00;98294.09;5936854;23;20022;-86
2024/01/03 08:49:36;;;;;;;20.55;1.88;;;8.50;99.90;;;7.14;100.00;98291.25;5947852;23;20566;-86
2024/01/03 08:52:05;;;;;;;15.45;1.70;;;8.40;99.90;;;7.17;100.00;98292.78;5853197;23;20390;-85
2024/01/03 08:59:13;;;;;;;13.50;1.80;;;;;;;7.22;100.00;98303.78;5767514;24;20421;-86
2024/01/03 09:02:06;;;;;;;8.80;1.53;;;;;;;7.17;100.00;98304.13;5709565;24;1251843;-87
2024/01/03 09:05:04;;;;;;;13.88;1.70;;;8.50;99.90;;;7.14;100.00;98301.69;5520008;24;4015053;-88
2024/01/03 09:11:16;;;;;;;17.95;1.52;;;8.50;99.90;;;7.17;100.00;98309.34;5365285;24;4992475;-88
2024/01/03 09:13:49;;;;;;;11.42;1.80;;;8.60;99.90;;;7.23;100.00;98304.63;5474784;24;2680198;-88
2024/01/03 09:19:16;;;;;;;12.05;1.77;;;;;;;7.29;100.00;98306.81;6086502;23;20037;-87
2024/01/03 09:21:55;;;;;;;11.80;1.38;;;8.60;99.90;;;7.28;100.00;98305.13;6018467;23;20019;-87
2024/01/03 09:27:17;;;;;;;10.68;1.50;;;;;;;7.35;100.00;98294.09;6019749;23;20025;-87
2024/01/03 09:29:48;;;;;;;14.35;1.70;;;8.70;99.90;;;7.38;100.00;98304.34;5949711;23;20021;-88
2024/01/03 09:33:22;;;;;;;22.77;2.67;;;8.80;99.90;;;7.48;100.00;98298.47;5894859;23;20026;-87
2024/01/03 09:39:08;;;;;;;15.07;2.58;;;;;;;7.58;100.00;98299.44;6070610;23;20121;-86
2024/01/03 09:41:55;;;;;;;22.15;2.20;;;;;;;7.59;100.00;98307.19;6000131;23;20212;-88
2024/01/03 09:44:34;;;;;;;12.55;2.22;;;;;;;7.62;100.00;98300.06;5999289;23;20015;-85
2024/01/03 09:49:56;;;;;;;14.07;1.85;;;;;;;7.61;100.00;98301.84;5938334;23;20175;-87
2024/01/03 09:52:48;;;;;;;;;;;;;;;;;;;;;
2024/01/03 09:55:35;;;;;;;10.77;1.40;;;8.90;99.90;;;7.56;100.00;98306.59;5910741;23;20592;-87
2024/01/03 09:58:27;;;;;;;;;;;;;;;;;;;;;
2024/01/03 10:00:57;;;;;;;13.60;1.80;;;8.90;99.90;;;7.56;100.00;98311.84;5869438;23;20820;-85
2024/01/03 10:07:06;;;;;;;15.70;1.70;;;8.90;99.90;;;7.57;100.00;98316.94;5779826;24;20025;-88
2024/01/03 10:09:56;;;;;;;15.75;1.55;;;;;;;7.58;100.00;98313.41;5705736;24;20111;-87
2024/01/03 10:12:49;;;;;;;;;;;;;;;;;;;;;
2024/01/03 10:18:34;;;;;;;16.38;2.20;;;;;;;7.58;100.00;98320.41;5726629;24;20158;-86
2024/01/03 10:21:25;;;;;;;9.75;1.30;;;9.00;99.90;;;7.58;100.00;98318.63;5752234;24;20015;-86
2024/01/03 10:24:53;;;;;;;;;;;;;;;;;;;;;
2024/01/03 10:27:36;;;;;;;16.70;2.90;;;9.00;99.90;;;7.65;100.00;98337.34;5587646;25;20097;-87
2024/01/03 10:30:57;;;;;;;9.73;1.83;;;;;;;7.65;100.00;98331.28;5564285;25;20030;-87
2024/01/03 10:51:33;;;;;;;12.65;1.50;;;;;;;7.52;100.00;98319.06;6096324;23;20140;-87
2024/01/03 10:55:05;;;;;;;14.50;1.70;;;;;;;7.56;100.00;98328.38;5816752;23;20024;-88
2024/01/03 11:01:44;;;;;;;15.93;2.03;;;9.00;99.90;;;7.58;100.00;98326.50;5774575;24;20075;-87
2024/01/03 11:05:15;;;;;;;16.58;2.67;;;9.00;99.90;;;7.60;100.00;98323.75;5744608;24;20929;-89
2024/01/03 11:15:26;;;;;;;16.13;2.08;;;;;;;7.62;100.00;98318.41;4922304;28;20271;-85
2024/01/03 11:18:14;;;;;;;15.07;1.55;;;;;;;7.65;100.00;98307.72;4964671;23;20129;-87
2024/01/03 11:21:56;;;;;;;;;;;;;;;;;;;;;
2024/01/03 11:24:54;;;;;;;15.73;2.05;;;;;;;7.67;100.00;98314.50;4961381;28;20045;-87
2024/01/03 11:27:36;;;;;;;10.32;2.05;;;9.00;99.90;;;7.68;100.00;98307.47;4941377;28;20051;-87
2024/01/03 11:30:06;;;;;;;9.55;1.63;;;;;;;7.69;100.00;98311.75;4875074;28;20030;-88
2024/01/03 11:34:07;;;;;;;13.23;2.10;;;9.00;99.90;;;7.69;100.00;98303.91;4907888;28;20050;-85
2024/01/03 11:36:55;;;;;;;10.73;1.33;;;9.10;99.90;;;7.67;100.00;98303.19;4856975;29;20049;-82
2024/01/03 11:39:43;;;;;;;17.60;2.17;;;9.00;99.90;;;7.68;100.00;98304.84;4879107;29;20042;-82
2024/01/03 11:42:46;;;;;;;9.95;1.60;;;9.00;99.90;;;7.66;100.00;98302.34;4867608;29;20467;-82
2024/01/03 11:45:48;;;;;;;17.05;1.90;;;9.00;99.90;;;7.70;100.00;98301.19;4855024;29;20047;-82
2024/01/03 11:48:09;;;;;;;18.02;2.13;;;9.00;99.90;;;7.76;100.00;98303.34;4867226;29;20431;-81
2024/01/03 11:50:38;;;;;;;14.45;2.13;;;9.10;99.90;;;7.79;100.00;98295.25;4856240;29;20126;-81
2024/01/03 11:53:13;;;;;;;11.95;3.00;;;9.10;99.90;;;7.84;100.00;98288.84;4866795;29;20101;-81
2024/01/03 11:56:24;;;;;;;12.07;2.10;;;9.20;99.90;;;7.90;100.00;98283.16;4878072;28;20047;-84
2024/01/03 11:59:06;;;;;;;19.33;2.22;;;9.20;99.90;;;7.93;100.00;98286.38;4868261;28;20147;-85
2024/01/03 12:01:35;;;;;;;13.57;2.05;;;9.20;99.90;;;7.97;100.00;98281.75;4889729;28;20533;-86
2024/01/03 12:04:41;;;;;;;12.02;2.15;;;9.30;99.90;;;8.02;100.00;98288.31;4893808;28;20044;-85
2024/01/03 12:07:17;;;;;;;13.27;1.80;;;9.30;99.90;;;8.04;100.00;98290.81;4871508;29;20055;-85
2024/01/03 12:09:43;;;;;;;16.50;2.15;;;9.30;99.90;;;8.02;100.00;98293.53;4901185;28;20039;-84
2024/01/03 12:12:44;;;;;;;11.68;2.13;;;9.30;99.90;;;8.05;100.00;98292.47;4903404;28;20113;-85
2024/01/03 12:16:23;;;;;;;14.52;1.73;;;9.30;99.90;;;8.04;100.00;98287.38;4934730;28;20101;-86
2024/01/03 12:19:22;;;;;;;10.63;2.13;;;9.40;99.90;;;8.14;100.00;98285.72;4928508;23;20456;-85
2024/01/03 12:22:29;;;;;;;;;;;;;;;;;;;;;
2024/01/03 12:24:59;;;;;;;16.58;2.22;;;9.40;99.90;;;8.21;100.00;98277.28;4936148;28;20062;-85
2024/01/03 12:27:35;;;;;;;9.63;1.50;;;9.50;99.90;;;8.32;100.00;98284.31;4920126;28;20095;-84
2024/01/03 12:31:05;;;;;;;10.48;1.35;;;9.60;99.90;;;8.43;100.00;98280.91;4870671;28;20049;-85
2024/01/03 12:33:18;;;;;;;17.13;2.35;;;9.60;99.90;;;8.40;100.00;98284.63;4901406;28;20046;-85
2024/01/03 12:36:00;;;;;;;10.38;1.33;;;;;;;8.48;100.00;98293.66;4903805;28;20074;-85
2024/01/03 12:38:34;;;;;;;12.43;1.45;;;9.80;99.90;;;8.54;100.00;98295.84;4914988;28;20121;-86
2024/01/03 12:41:11;;;;;;;13.80;1.70;;;9.80;99.90;;;8.56;100.00;98291.31;4870985;28;20045;-85
2024/01/03 12:43:43;;;;;;;15.63;2.25;;;9.80;99.90;;;8.61;100.00;98289.97;4933669;28;20092;-85
2024/01/03 12:46:15;;;;;;;6.80;2.05;;;9.80;99.90;;;8.61;100.00;98292.59;4876629;28;20571;-84
2024/01/03 12:48:44;;;;;;;12.00;1.55;;;9.90;99.90;;;8.67;100.00;98293.09;4853546;28;20146;-84
2024/01/03 12:51:34;;;;;;;13.90;1.75;;;;;;;8.65;100.00;98293.22;4911626;28;20039;-85
2024/01/03 12:54:22;;;;;;;11.07;2.17;;;9.90;99.90;;;8.63;100.00;98288.06;4926766;28;20038;-85
2024/01/03 12:57:17;;;;;;;7.63;1.52;;;9.90;99.90;;;8.68;100.00;98294.75;4919251;28;20046;-85
2024/01/03 13:00:25;;;;;;;12.77;1.77;;;9.90;99.90;;;8.69;100.00;98292.00;4855083;28;20039;-85
2024/01/03 13:02:35;;;;;;;12.93;1.70;;;;;;;8.73;100.00;98301.31;4890031;28;20039;-85
2024/01/03 13:05:29;;;;;;;;;;;;;;;;;;;;;
2024/01/03 13:07:56;;;;;;;12.65;2.40;;;10.10;99.90;;;8.86;100.00;98303.81;4894646;28;20346;-84
2024/01/03 13:10:33;;;;;;;10.55;1.52;;;10.10;99.90;;;8.88;100.00;98304.53;4909633;28;20035;-85
2024/01/03 13:13:15;;;;;;;7.93;1.58;;;10.10;99.90;;;8.91;100.00;98298.22;4908466;28;20073;-84
2024/01/03 13:15:53;;;;;;;8.88;1.40;;;;;;;8.90;100.00;98299.16;4899611;28;20038;-85
2024/01/03 13:19:35;;;;;;;6.60;1.50;;;10.20;99.90;;;8.83;100.00;98297.03;4900334;28;20497;-86
2024/01/03 13:21:43;;;;;;;10.60;1.75;;;10.10;99.90;;;8.79;100.00;98303.47;4903519;28;20608;-86
2024/01/03 13:24:13;;;;;;;8.50;1.25;;;;;;;8.84;100.00;98300.50;4912951;28;20105;-84
2024/01/03 13:27:25;;;;;;;9.18;1.20;;;10.10;99.90;;;8.86;100.00;98300.38;4914874;28;20450;-84
2024/01/03 13:29:26;;;;;;;15.45;1.48;;;;;;;8.84;100.00;98303.13;4894578;28;20031;-86
2024/01/03 13:31:54;;;;;;;7.93;0.95;;;;;;;8.88;100.00;98303.72;4871895;28;20053;-85
2024/01/03 13:34:23;;;;;;;5.28;1.13;;;10.20;99.90;;;8.89;100.00;98313.25;4922605;28;20042;-85
2024/01/03 13:37:03;;;;;;;10.15;1.10;;;10.20;99.90;;;8.91;100.00;98316.59;4918234;23;20092;-84
2024/01/03 13:40:05;;;;;;;7.38;1.15;;;10.20;99.90;;;8.89;100.00;98308.81;4950317;28;20494;-85
2024/01/03 13:42:37;;;;;;;9.05;1.25;;;10.20;99.90;;;8.90;100.00;98314.91;4916911;28;20042;-85
2024/01/03 13:45:17;;;;;;;9.77;1.30;;;10.20;99.90;;;8.94;100.00;98313.72;4917262;28;20088;-85
2024/01/03 13:48:05;;;;;;;9.70;1.02;;;10.20;99.90;;;8.95;100.00;98315.41;4913870;28;20038;-84
2024/01/03 13:50:35;;;;;;;8.50;1.58;;;10.20;99.90;;;8.98;100.00;98312.50;4871021;28;20999;-84
2024/01/03 13:55:55;;;;;;;7.22;1.20;;;10.30;99.90;;;8.96;100.00;98315.28;4897933;28;20030;-84
2024/01/03 13:58:36;;;;;;;8.65;1.20;;;10.20;99.90;;;8.96;100.00;98303.94;4930775;28;20603;-85
2024/01/03 14:01:25;;;;;;;8.15;1.13;;;10.30;99.90;;;8.94;100.00;98305.84;4914060;28;20052;-85
2024/01/03 14:03:54;;;;;;;5.28;1.23;;;10.20;99.90;;;8.94;100.00;98311.94;4918725;28;20074;-85
2024/01/03 14:06:45;;;;;;;7.80;1.35;;;10.20;99.90;;;8.96;100.00;98304.78;4951160;28;20061;-85
2024/01/03 14:09:15;;;;;;;9.77;1.88;;;10.20;99.90;;;8.95;100.00;98318.03;4919628;28;20180;-84
2024/01/03 14:11:52;;;;;;;9.98;2.08;;;10.20;99.90;;;8.94;100.00;98322.44;4858305;28;20040;-84
2024/01/03 14:14:29;;;;;;;;;;;;;;;;;;;;;
2024/01/03 14:17:00;;;;;;;6.93;1.10;;;10.10;99.90;;;8.88;100.00;98316.84;4907099;28;20369;-84
2024/01/03 14:19:26;;;;;;;12.95;1.20;;;10.10;99.90;;;8.80;100.00;98315.63;4875024;28;20118;-84
2024/01/03 14:22:14;;;;;;;10.07;1.95;;;10.10;99.90;;;8.82;100.00;98316.34;4906929;28;20039;-85
2024/01/03 14:24:43;;;;;;;8.07;1.73;;;;;;;8.82;100.00;98318.97;4896376;28;20040;-84
2024/01/03 14:27:26;;;;;;;6.97;1.05;;;10.10;99.90;;;8.80;100.00;98320.88;4909526;28;20388;-85
2024/01/03 14:30:05;;;;;;;10.75;1.30;;;10.10;99.90;;;8.77;100.00;98325.53;4920865;28;20064;-85
2024/01/03 14:32:54;;;;;;;11.63;1.70;;;10.00;99.90;;;8.71;100.00;98316.34;4918333;28;20038;-86
2024/01/03 14:35:37;;;;;;;6.95;1.08;;;10.00;99.90;;;8.70;100.00;98319.09;4890902;28;20041;-84
2024/01/03 14:38:03;;;;;;;8.48;1.77;;;10.00;99.90;;;8.69;100.00;98320.88;4901803;28;20046;-84
2024/01/03 14:40:39;;;;;;;8.32;1.77;;;9.90;99.90;;;8.63;100.00;98319.53;4889047;28;20605;-84
2024/01/03 14:46:16;;;;;;;14.68;2.17;;;9.90;99.90;;;8.54;100.00;98330.75;4801604;29;20040;-85
2024/01/03 14:48:42;;;;;;;9.77;1.38;;;9.80;99.90;;;8.51;100.00;98325.75;4844965;29;20426;-84
2024/01/03 14:51:09;;;;;;;6.95;1.00;;;9.80;99.90;;;8.45;100.00;98326.22;4793129;29;20060;-83
2024/01/03 14:53:35;;;;;;;9.45;1.50;;;9.80;99.90;;;8.43;100.00;98329.91;4802015;29;20043;-84
2024/01/03 14:56:13;;;;;;;5.07;1.20;;;9.80;99.90;;;8.44;100.00;98331.56;4807164;29;20114;-84
2024/01/03 14:58:41;;;;;;;7.20;1.20;;;9.80;99.90;;;8.47;100.00;98328.72;4822586;29;20053;-84
2024/01/03 15:01:16;;;;;;;14.10;1.63;;;9.70;99.90;;;8.43;100.00;98328.13;4789891;29;20088;-83
2024/01/03 15:03:53;;;;;;;8.93;1.00;;;9.70;99.90;;;8.39;100.00;98334.50;4808071;29;20079;-85
2024/01/03 15:06:22;;;;;;;11.05;1.40;;;9.60;99.90;;;8.30;100.00;98328.19;4810233;29;20472;-85
2024/01/03 15:08:57;;;;;;;12.48;1.48;;;9.60;99.90;;;8.29;100.00;98329.13;4833372;29;20033;-84
2024/01/03 15:11:23;;;;;;;6.28;1.35;;;9.60;99.90;;;8.28;100.00;98330.06;4857977;29;20136;-85
2024/01/03 15:13:49;;;;;;;6.28;1.55;;;9.60;99.90;;;8.26;100.00;98333.78;4799081;29;20162;-86
2024/01/03 15:16:15;;;;;;;9.07;1.40;;;9.60;99.90;;;8.28;100.00;98331.88;4839075;29;20034;-84
2024/01/03 15:19:04;;;;;;;7.40;1.30;;;9.60;99.90;;;8.29;100.00;98325.66;4829801;29;20392;-85
2024/01/03 15:21:35;;;;;;;4.63;1.08;;;9.60;99.90;;;8.27;100.00;98332.81;4801391;29;20164;-84
2024/01/03 15:24:13;;;;;;;9.35;1.33;;;;;;;8.24;100.00;98330.44;4877137;28;20042;-85
2024/01/03 15:26:58;;;;;;;;;;;;;;;;;;;;;
2024/01/03 15:29:27;;;;;;;5.25;1.20;;;9.50;99.90;;;8.21;100.00;98326.25;4886610;28;20449;-84
2024/01/03 15:31:54;;;;;;;7.30;1.33;;;9.50;99.90;;;8.22;100.00;98327.91;4940250;28;20046;-84
2024/01/03 15:34:32;;;;;;;13.00;1.55;;;;;;;8.21;100.00;98337.56;4912475;28;20078;-85
2024/01/03 15:36:59;;;;;;;7.53;1.00;;;9.50;99.90;;;8.20;100.00;98335.88;4924181;28;20120;-84
2024/01/03 15:39:25;;;;;;;8.13;1.70;;;9.50;99.90;;;8.16;100.00;98329.22;4938650;28;20110;-84
2024/01/03 15:42:18;;;;;;;4.55;1.08;;;9.50;99.90;;;8.13;100.00;98326.00;4918811;28;20443;-84
2024/01/03 15:44:44;;;;;;;6.60;1.00;;;;;;;8.11;100.00;98333.13;4938479;28;20053;-85
2024/01/03 15:47:33;;;;;;;7.20;1.42;;;9.40;99.90;;;8.11;100.00;98330.50;4916189;28;20048;-85
2024/01/03 15:50:00;;;;;;;11.05;1.20;;;9.40;99.90;;;8.10;100.00;98331.44;4949996;28;20049;-84
2024/01/03 15:52:26;;;;;;;6.72;1.13;;;9.40;99.90;;;8.01;100.00;98332.97;4890474;28;20135;-83
2024/01/03 15:54:54;;;;;;;7.53;1.10;;;9.40;99.90;;;8.06;100.00;98330.84;4902842;28;20054;-84
2024/01/03 15:57:27;;;;;;;5.15;1.05;;;9.40;99.90;;;8.03;100.00;98338.94;4948531;28;20391;-84